createdAt,value
2022-08-25T00:02:59.632Z,21.10
2022-08-25T00:13:29.841Z,21.18
2022-08-25T00:23:58.644Z,21.22
2022-08-25T00:34:30.765Z,21.17
2022-08-25T00:45:00.620Z,21.23
2022-08-25T00:55:35.883Z,21.23
2022-08-25T01:06:06.817Z,21.22
2022-08-25T01:16:37.287Z,21.19
2022-08-25T01:27:07.449Z,21.15
2022-08-25T01:37:37.309Z,20.98
2022-08-25T01:48:07.987Z,21.01
2022-08-25T01:58:38.913Z,20.90
2022-08-25T02:09:10.889Z,20.68
2022-08-25T02:19:40.097Z,20.74
2022-08-25T02:30:10.770Z,20.95
2022-08-25T02:40:39.944Z,21.13
2022-08-25T02:51:11.236Z,21.19
2022-08-25T03:01:40.694Z,21.20
2022-08-25T03:12:11.338Z,21.14
2022-08-25T03:22:40.190Z,21.02
2022-08-25T03:33:09.180Z,20.95
2022-08-25T03:43:38.205Z,21.01
2022-08-25T03:54:08.698Z,21.01
2022-08-25T04:04:38.101Z,20.91
2022-08-25T04:15:08.000Z,20.74
2022-08-25T04:25:37.082Z,20.58
2022-08-25T04:36:11.924Z,20.55
2022-08-25T04:46:41.732Z,20.43
2022-08-25T04:57:10.949Z,20.38
2022-08-25T05:07:40.784Z,20.43
2022-08-25T05:18:09.821Z,20.59
2022-08-25T05:28:41.103Z,20.85
2022-08-25T05:39:10.331Z,21.32
2022-08-25T05:49:39.319Z,21.88
2022-08-25T06:00:10.843Z,22.48
2022-08-25T06:10:39.931Z,23.16
2022-08-25T06:21:14.609Z,23.66
2022-08-25T06:31:43.828Z,24.03
2022-08-25T06:42:12.899Z,24.30
2022-08-25T06:52:41.845Z,24.57
2022-08-25T07:03:10.821Z,24.98
2022-08-25T07:13:41.187Z,25.40
2022-08-25T07:24:12.832Z,25.78
2022-08-25T07:34:58.910Z,25.98
2022-08-25T07:45:31.308Z,26.03
2022-08-25T07:56:00.278Z,26.24
2022-08-25T08:06:30.497Z,26.31
2022-08-25T08:17:00.058Z,26.32
2022-08-25T08:27:29.152Z,26.42
2022-08-25T08:37:57.955Z,26.53
2022-08-25T08:48:51.041Z,26.44
2022-08-25T08:59:29.921Z,26.51
2022-08-25T09:10:00.162Z,26.60
2022-08-25T09:20:44.840Z,26.55
2022-08-25T09:31:20.257Z,26.40
2022-08-25T09:41:52.986Z,26.43
2022-08-25T09:52:27.994Z,26.33
2022-08-25T10:03:12.197Z,26.37
2022-08-25T10:13:45.555Z,26.40
2022-08-25T10:24:15.749Z,26.42
2022-08-25T10:34:51.588Z,26.53
2022-08-25T10:45:44.956Z,26.71
2022-08-25T10:56:18.830Z,26.81
2022-08-25T11:06:54.731Z,26.89
2022-08-25T11:17:27.003Z,27.06
2022-08-25T11:28:05.381Z,27.25
2022-08-25T11:38:49.652Z,27.31
2022-08-25T11:49:41.021Z,27.39
2022-08-25T12:00:15.141Z,27.40
2022-08-25T12:11:06.108Z,27.44
2022-08-25T12:21:39.274Z,27.50
2022-08-25T12:32:41.418Z,27.61
2022-08-25T12:43:15.100Z,27.64
2022-08-25T12:53:52.760Z,27.66
2022-08-25T13:04:44.209Z,27.74
2022-08-25T13:15:16.299Z,27.79
2022-08-25T13:25:51.852Z,27.85
2022-08-25T13:36:40.445Z,27.88
2022-08-25T13:47:12.508Z,27.91
2022-08-25T13:57:46.227Z,27.93
2022-08-25T14:18:53.877Z,27.96
2022-08-25T14:29:25.269Z,27.94
2022-08-25T14:39:55.003Z,27.92
2022-08-25T14:50:24.757Z,27.89
2022-08-25T15:00:54.459Z,27.88
2022-08-25T15:11:23.441Z,27.88
2022-08-25T15:21:52.616Z,27.87
2022-08-25T15:32:21.599Z,27.85
2022-08-25T15:42:52.725Z,27.82
2022-08-25T15:53:21.714Z,27.77
2022-08-25T16:03:51.431Z,27.75
2022-08-25T16:14:20.448Z,27.71
2022-08-25T16:24:49.562Z,27.66
2022-08-25T16:35:18.606Z,27.55
2022-08-25T16:45:47.374Z,27.41
2022-08-25T16:56:16.520Z,27.26
2022-08-25T17:06:51.629Z,27.12
2022-08-25T17:17:21.749Z,26.93
2022-08-25T17:27:56.044Z,26.76
2022-08-25T17:38:28.401Z,26.63
2022-08-25T17:48:57.758Z,26.43
2022-08-25T17:59:28.013Z,26.20
2022-08-25T18:10:02.215Z,25.98
2022-08-25T18:20:31.244Z,25.79
2022-08-25T18:31:00.183Z,25.63
2022-08-25T18:41:30.380Z,25.36
2022-08-25T18:51:59.472Z,25.21
2022-08-25T19:02:28.979Z,25.08
2022-08-25T19:12:58.832Z,24.92
2022-08-25T19:23:39.021Z,24.70
2022-08-25T19:34:10.596Z,24.61
2022-08-25T19:44:41.052Z,24.47
2022-08-25T19:55:11.957Z,24.28
2022-08-25T20:05:41.822Z,24.09
2022-08-25T20:16:11.926Z,23.99
2022-08-25T20:26:41.147Z,23.85
2022-08-25T20:37:12.377Z,23.71
2022-08-25T20:47:42.061Z,23.65
2022-08-25T20:58:11.107Z,23.53
2022-08-25T21:08:46.597Z,23.41
2022-08-25T21:19:16.705Z,23.15
2022-08-25T21:29:55.526Z,22.98
2022-08-25T21:40:25.898Z,22.94
2022-08-25T21:51:04.079Z,22.90
2022-08-25T22:01:35.430Z,22.83
2022-08-25T22:12:05.266Z,22.81
2022-08-25T22:22:34.548Z,22.62
2022-08-25T22:33:03.863Z,22.39
2022-08-25T22:43:32.730Z,22.23
2022-08-25T22:54:02.873Z,22.24
2022-08-25T23:04:32.892Z,22.21
2022-08-25T23:15:02.177Z,22.21
2022-08-25T23:25:31.677Z,22.18
2022-08-25T23:36:08.536Z,21.96
2022-08-25T23:46:39.468Z,21.85
2022-08-25T23:57:08.800Z,21.77
